Time;durP1;ratioP1;P1;durP2;ratioP2;P2;SDS_P1;SDS_P2;PMS_P1;PMS_P2;Temp;Humidity;BMP_temperature;BMP_pressure;BME280_temperature;BME280_humidity;BME280_pressure;Samples;Min_cycle;Max_cycle;Signal;HPM_P1;HPM_P2
2022/10/05 00:01:51;;;;;;;4.22;2.63;;;;;;;;;;5087718;28;20044;-80
2022/10/05 00:04:24;;;;;;;6.30;2.70;;;;;;;;;;5065366;28;20049;-80
2022/10/05 00:06:50;;;;;;;5.53;2.67;;;;;;;;;;5068891;28;20047;-79
2022/10/05 00:09:17;;;;;;;6.88;3.28;;;;;;;;;;5084141;28;20051;-82
2022/10/05 00:11:44;;;;;;;7.25;2.72;;;;;;;;;;5073692;28;20074;-81
2022/10/05 00:14:18;;;;;;;5.65;2.60;;;;;;;;;;5075207;28;20044;-81
2022/10/05 00:16:44;;;;;;;10.27;3.15;;;;;;;;;;5088140;28;20048;-82
2022/10/05 00:19:31;;;;;;;6.53;2.80;;;;;;;;;;5067115;28;20048;-81
2022/10/05 00:22:10;;;;;;;6.03;2.72;;;;;;;;;;5073658;28;20127;-82
2022/10/05 00:24:36;;;;;;;8.43;3.00;;;;;;;;;;5065896;28;20059;-82
2022/10/05 00:27:12;;;;;;;6.32;2.80;;;;;;;;;;5071800;28;20048;-82
2022/10/05 00:29:38;;;;;;;6.40;2.92;;;;;;;;;;5085772;28;20115;-82
2022/10/05 00:32:04;;;;;;;4.57;2.60;;;;;;;;;;5087863;28;20455;-82
2022/10/05 00:34:32;;;;;;;7.75;2.97;;;;;;;;;;5084322;28;20051;-82
2022/10/05 00:36:58;;;;;;;6.85;2.90;;;;;;;;;;5069761;28;20509;-82
2022/10/05 00:39:25;;;;;;;7.93;2.88;;;;;;;;;;5079222;28;20044;-82
2022/10/05 00:41:54;;;;;;;8.27;3.28;;;;;;;;;;5083091;28;20508;-81
2022/10/05 00:44:46;;;;;;;7.15;3.15;;;;;;;;;;5089268;28;20028;-82
2022/10/05 00:47:12;;;;;;;5.05;2.90;;;;;;;;;;5041767;28;20052;-82
2022/10/05 00:49:57;;;;;;;6.40;3.03;;;;;;;;;;5076240;28;20052;-83
2022/10/05 00:52:29;;;;;;;5.95;2.83;;;;;;;;;;5093716;28;20047;-82
2022/10/05 00:55:08;;;;;;;6.72;3.00;;;;;;;;;;5096041;28;20071;-82
2022/10/05 00:57:37;;;;;;;5.90;3.20;;;;;;;;;;5068798;28;20052;-81
2022/10/05 01:00:03;;;;;;;6.28;2.92;;;;;;;;;;5075531;28;20395;-82
2022/10/05 01:02:45;;;;;;;5.78;3.60;;;;;;;;;;5072338;28;20055;-82
2022/10/05 01:05:28;;;;;;;9.43;3.40;;;;;;;;;;5089414;28;20546;-81
2022/10/05 01:08:02;;;;;;;4.88;2.88;;;;;;;;;;5062844;28;20096;-82
2022/10/05 01:10:38;;;;;;;8.35;4.05;;;;;;;;;;5093618;28;20076;-82
2022/10/05 01:13:23;;;;;;;7.18;2.80;;;;;;;;;;5074751;28;20137;-83
2022/10/05 01:15:53;;;;;;;6.03;2.90;;;;;;;;;;5071363;28;20479;-81
2022/10/05 01:18:38;;;;;;;5.50;2.95;;;;;;;;;;5092618;28;20051;-82
2022/10/05 01:21:12;;;;;;;5.50;3.15;;;;;;;;;;5068650;28;20136;-82
2022/10/05 01:23:38;;;;;;;6.57;2.75;;;;;;;;;;5075202;28;20040;-81
2022/10/05 01:26:23;;;;;;;7.95;3.50;;;;;;;;;;5074067;28;20509;-81
2022/10/05 01:28:52;;;;;;;4.72;2.97;;;;;;;;;;5071207;28;20391;-82
2022/10/05 01:31:21;;;;;;;5.70;3.20;;;;;;;;;;5090261;28;20126;-82
2022/10/05 01:33:53;;;;;;;4.55;3.22;;;;;;;;;;5078929;28;20117;-82
2022/10/05 01:36:22;;;;;;;3.92;3.25;;;;;;;;;;5071736;28;20101;-82
2022/10/05 01:38:53;;;;;;;4.20;3.50;;;;;;;;;;5068477;28;20079;-82
2022/10/05 01:41:30;;;;;;;6.57;3.30;;;;;;;;;;5070565;28;20456;-82
2022/10/05 01:44:02;;;;;;;3.88;3.42;;;;;;;;;;5073307;28;20122;-82
2022/10/05 01:46:38;;;;;;;5.20;3.40;;;;;;;;;;5068441;28;20079;-82
2022/10/05 01:49:10;;;;;;;7.53;3.33;;;;;;;;;;5084608;28;20076;-82
2022/10/05 01:51:37;;;;;;;6.53;3.13;;;;;;;;;;5081079;28;20114;-82
2022/10/05 01:54:15;;;;;;;4.70;3.30;;;;;;;;;;5073789;28;20050;-82
2022/10/05 01:56:41;;;;;;;6.60;3.20;;;;;;;;;;5086854;28;20040;-82
2022/10/05 01:59:35;;;;;;;5.07;2.95;;;;;;;;;;5092114;28;20035;-82
2022/10/05 02:02:03;;;;;;;5.65;3.13;;;;;;;;;;5086988;28;20479;-82
2022/10/05 02:04:42;;;;;;;5.03;3.10;;;;;;;;;;5073117;28;20177;-82
2022/10/05 02:07:09;;;;;;;5.75;3.08;;;;;;;;;;5071738;28;20391;-81
2022/10/05 02:09:44;;;;;;;5.38;3.42;;;;;;;;;;5068143;28;20047;-82
2022/10/05 02:12:15;;;;;;;3.33;3.00;;;;;;;;;;5080753;28;20126;-82
2022/10/05 02:14:43;;;;;;;5.97;3.10;;;;;;;;;;5093498;28;20111;-81
2022/10/05 02:17:17;;;;;;;3.35;2.95;;;;;;;;;;5088480;28;20405;-81
2022/10/05 02:19:48;;;;;;;8.20;2.97;;;;;;;;;;5086571;28;20391;-82
2022/10/05 02:22:21;;;;;;;4.40;3.10;;;;;;;;;;5070022;28;20071;-82
2022/10/05 02:25:02;;;;;;;5.57;3.38;;;;;;;;;;5081062;28;20040;-81
2022/10/05 02:27:34;;;;;;;5.90;2.90;;;;;;;;;;5061765;28;20117;-82
2022/10/05 02:30:02;;;;;;;5.15;2.90;;;;;;;;;;5072742;28;20047;-82
2022/10/05 02:32:32;;;;;;;3.70;2.85;;;;;;;;;;5087638;28;20112;-82
2022/10/05 02:35:00;;;;;;;3.95;2.60;;;;;;;;;;5072466;28;20441;-82
2022/10/05 02:37:45;;;;;;;6.05;3.10;;;;;;;;;;5069090;28;20036;-81
2022/10/05 02:40:24;;;;;;;3.08;2.70;;;;;;;;;;5073761;28;20066;-81
2022/10/05 02:43:01;;;;;;;2.88;2.60;;;;;;;;;;5064105;28;20044;-82
2022/10/05 02:46:00;;;;;;;3.35;2.70;;;;;;;;;;5073463;28;20055;-82
2022/10/05 02:48:44;;;;;;;5.72;2.70;;;;;;;;;;5032369;28;20122;-82
2022/10/05 02:51:10;;;;;;;2.72;2.53;;;;;;;;;;5071270;28;20052;-81
2022/10/05 02:53:53;;;;;;;3.78;2.60;;;;;;;;;;5070983;28;20055;-82
2022/10/05 02:56:26;;;;;;;5.97;2.83;;;;;;;;;;5065680;28;21293;-81
2022/10/05 02:59:14;;;;;;;4.57;2.90;;;;;;;;;;5067050;28;20437;-82
2022/10/05 03:01:48;;;;;;;4.22;2.92;;;;;;;;;;5091317;28;20048;-82
2022/10/05 03:04:18;;;;;;;4.28;2.80;;;;;;;;;;5060112;28;20049;-82
2022/10/05 03:06:50;;;;;;;4.53;2.70;;;;;;;;;;5071128;28;20050;-81
2022/10/05 03:09:18;;;;;;;4.55;2.65;;;;;;;;;;5089837;28;20040;-81
2022/10/05 03:11:58;;;;;;;5.47;2.92;;;;;;;;;;5068183;28;20044;-82
2022/10/05 03:14:56;;;;;;;5.07;2.80;;;;;;;;;;5069992;28;20044;-81
2022/10/05 03:17:25;;;;;;;4.03;2.63;;;;;;;;;;5027744;28;20487;-81
2022/10/05 03:20:00;;;;;;;6.35;3.05;;;;;;;;;;5071611;28;20411;-82
2022/10/05 03:22:45;;;;;;;2.53;2.30;;;;;;;;;;5088968;28;20126;-81
2022/10/05 03:25:27;;;;;;;4.47;2.60;;;;;;;;;;5067747;28;20056;-81
2022/10/05 03:27:59;;;;;;;3.50;2.35;;;;;;;;;;5087019;28;20082;-81
2022/10/05 03:30:26;;;;;;;3.67;2.50;;;;;;;;;;5069752;28;20036;-81
2022/10/05 03:33:05;;;;;;;2.83;2.47;;;;;;;;;;5064008;28;20044;-81
2022/10/05 03:35:40;;;;;;;6.30;2.50;;;;;;;;;;5072948;28;20041;-81
2022/10/05 03:38:14;;;;;;;5.30;2.28;;;;;;;;;;5087074;28;20040;-82
2022/10/05 03:40:46;;;;;;;5.47;2.40;;;;;;;;;;5070979;28;20483;-81
2022/10/05 03:43:22;;;;;;;5.70;2.85;;;;;;;;;;5068211;28;20040;-81
2022/10/05 03:45:52;;;;;;;2.80;2.47;;;;;;;;;;5068585;28;20089;-82
2022/10/05 03:48:27;;;;;;;6.35;2.80;;;;;;;;;;5068604;28;20048;-81
2022/10/05 03:50:58;;;;;;;5.32;2.67;;;;;;;;;;5086217;28;20487;-82
2022/10/05 03:53:31;;;;;;;6.07;2.25;;;;;;;;;;5086294;28;20036;-81
2022/10/05 03:55:58;;;;;;;3.53;2.30;;;;;;;;;;5086559;28;20079;-82
2022/10/05 03:58:27;;;;;;;5.05;2.38;;;;;;;;;;5070329;28;20044;-81
2022/10/05 04:00:55;;;;;;;3.10;2.10;;;;;;;;;;5088223;28;20040;-82
2022/10/05 04:03:25;;;;;;;2.95;2.17;;;;;;;;;;5087951;28;20048;-82
2022/10/05 04:05:55;;;;;;;4.72;2.22;;;;;;;;;;5085242;28;20048;-81
2022/10/05 04:08:34;;;;;;;2.50;2.20;;;;;;;;;;5086517;28;20044;-80
2022/10/05 04:11:05;;;;;;;5.68;2.25;;;;;;;;;;5092612;28;20113;-83
2022/10/05 04:13:50;;;;;;;4.85;2.28;;;;;;;;;;5065685;28;20072;-82
2022/10/05 04:16:26;;;;;;;4.57;2.40;;;;;;;;;;5061634;28;20048;-81
2022/10/05 04:19:02;;;;;;;4.80;2.30;;;;;;;;;;5068670;28;20094;-81
2022/10/05 04:21:30;;;;;;;3.67;2.10;;;;;;;;;;5092771;28;20954;-82
2022/10/05 04:23:56;;;;;;;8.13;2.60;;;;;;;;;;5086416;28;20044;-81
2022/10/05 04:26:30;;;;;;;4.10;2.00;;;;;;;;;;5084099;28;20116;-81
2022/10/05 04:29:05;;;;;;;3.22;2.00;;;;;;;;;;5089246;28;20507;-81
2022/10/05 04:31:50;;;;;;;4.65;2.28;;;;;;;;;;5073837;28;20048;-81
2022/10/05 04:34:36;;;;;;;4.05;2.40;;;;;;;;;;5090954;28;20040;-81
2022/10/05 04:37:05;;;;;;;3.70;2.10;;;;;;;;;;5075973;28;20053;-81
2022/10/05 04:39:40;;;;;;;6.05;2.40;;;;;;;;;;5088534;28;20510;-80
2022/10/05 04:42:15;;;;;;;3.40;2.10;;;;;;;;;;5077709;28;20380;-80
2022/10/05 04:45:00;;;;;;;2.83;2.10;;;;;;;;;;5071914;28;20044;-81
2022/10/05 04:47:46;;;;;;;3.63;2.25;;;;;;;;;;5088906;28;20043;-81
2022/10/05 04:50:31;;;;;;;3.80;1.98;;;;;;;;;;5070823;28;20040;-80
2022/10/05 04:53:00;;;;;;;2.75;1.90;;;;;;;;;;5062192;28;20097;-83
2022/10/05 04:55:39;;;;;;;4.15;1.90;;;;;;;;;;5088882;28;20067;-82
2022/10/05 04:58:14;;;;;;;4.07;2.05;;;;;;;;;;5072999;28;20075;-81
2022/10/05 05:01:07;;;;;;;2.78;1.88;;;;;;;;;;5071827;28;20040;-81
2022/10/05 05:03:36;;;;;;;3.60;2.00;;;;;;;;;;5066532;28;20176;-80
2022/10/05 05:06:08;;;;;;;2.40;2.00;;;;;;;;;;5075444;28;20044;-81
2022/10/05 05:08:49;;;;;;;2.95;1.90;;;;;;;;;;5092368;28;20040;-81
2022/10/05 05:11:23;;;;;;;3.05;2.10;;;;;;;;;;5089551;28;20485;-81
2022/10/05 05:13:52;;;;;;;3.08;1.85;;;;;;;;;;5088362;28;20378;-81
2022/10/05 05:16:37;;;;;;;3.17;1.70;;;;;;;;;;5076990;28;20036;-81
2022/10/05 05:19:17;;;;;;;2.42;2.20;;;;;;;;;;5089807;28;20131;-81
2022/10/05 05:22:03;;;;;;;3.50;2.55;;;;;;;;;;5092902;28;20036;-81
2022/10/05 05:24:31;;;;;;;6.30;3.75;;;;;;;;;;5071677;28;20495;-80
2022/10/05 05:26:57;;;;;;;3.35;2.10;;;;;;;;;;5066383;28;20058;-81
2022/10/05 05:29:34;;;;;;;4.20;2.42;;;;;;;;;;5068540;28;20036;-82
2022/10/05 05:32:06;;;;;;;4.93;2.55;;;;;;;;;;5076701;28;20082;-81
2022/10/05 05:34:51;;;;;;;3.20;2.17;;;;;;;;;;5070973;28;20044;-82
2022/10/05 05:37:20;;;;;;;3.47;2.58;;;;;;;;;;5069974;28;20043;-81
2022/10/05 05:39:49;;;;;;;3.60;2.75;;;;;;;;;;5088819;28;20040;-81
2022/10/05 05:42:20;;;;;;;3.42;2.95;;;;;;;;;;5088905;28;20080;-81
2022/10/05 05:44:49;;;;;;;7.03;3.50;;;;;;;;;;5079047;28;20384;-81
2022/10/05 05:47:44;;;;;;;3.92;3.47;;;;;;;;;;5069259;28;20767;-80
2022/10/05 05:50:20;;;;;;;5.65;3.65;;;;;;;;;;5068014;28;20060;-80
2022/10/05 05:52:55;;;;;;;5.28;3.95;;;;;;;;;;5073105;28;20032;-81
2022/10/05 05:55:41;;;;;;;4.47;3.85;;;;;;;;;;5067972;28;20039;-81
2022/10/05 05:58:20;;;;;;;6.03;4.40;;;;;;;;;;5063643;28;20047;-81
2022/10/05 06:01:12;;;;;;;4.22;3.70;;;;;;;;;;5085318;28;20131;-81
2022/10/05 06:03:50;;;;;;;5.80;4.25;;;;;;;;;;5041762;28;20052;-81
2022/10/05 06:06:17;;;;;;;4.43;3.90;;;;;;;;;;5083743;28;20134;-81
2022/10/05 06:09:02;;;;;;;4.10;3.70;;;;;;;;;;5112594;28;20043;-81
2022/10/05 06:11:40;;;;;;;4.07;3.47;;;;;;;;;;5085521;28;20930;-81
2022/10/05 06:14:15;;;;;;;4.15;3.70;;;;;;;;;;5090360;28;20052;-80
2022/10/05 06:16:45;;;;;;;7.63;4.18;;;;;;;;;;5092505;28;20043;-81
2022/10/05 06:19:13;;;;;;;5.05;3.83;;;;;;;;;;5090569;28;20058;-80
2022/10/05 06:21:45;;;;;;;4.25;3.50;;;;;;;;;;5073762;28;20040;-81
2022/10/05 06:24:23;;;;;;;4.32;3.53;;;;;;;;;;5082916;28;20044;-80
2022/10/05 06:27:08;;;;;;;6.50;3.65;;;;;;;;;;5085013;28;20052;-81
2022/10/05 06:29:53;;;;;;;6.35;3.40;;;;;;;;;;5073786;28;20402;-81
2022/10/05 06:32:19;;;;;;;4.05;3.28;;;;;;;;;;5074734;28;20032;-80
2022/10/05 06:34:53;;;;;;;6.10;3.47;;;;;;;;;;5089913;28;20043;-80
2022/10/05 06:37:27;;;;;;;4.40;3.08;;;;;;;;;;5068934;28;20047;-79
2022/10/05 06:39:59;;;;;;;4.22;3.13;;;;;;;;;;5076024;28;20051;-80
2022/10/05 06:42:42;;;;;;;4.13;2.90;;;;;;;;;;5081934;28;20040;-80
2022/10/05 06:45:18;;;;;;;3.30;3.05;;;;;;;;;;5066606;28;20436;-80
2022/10/05 06:47:49;;;;;;;7.47;3.05;;;;;;;;;;5072927;28;20097;-80
2022/10/05 06:50:15;;;;;;;3.65;3.00;;;;;;;;;;5067739;28;20048;-80
2022/10/05 06:52:56;;;;;;;3.55;3.10;;;;;;;;;;5088688;28;20048;-80
2022/10/05 06:55:41;;;;;;;5.60;3.22;;;;;;;;;;5087100;28;20563;-80
2022/10/05 06:58:26;;;;;;;2.80;2.60;;;;;;;;;;5074111;28;20043;-79
2022/10/05 07:01:00;;;;;;;5.05;2.80;;;;;;;;;;5094046;28;20052;-82
2022/10/05 07:03:40;;;;;;;3.42;3.00;;;;;;;;;;5090288;28;20043;-81
2022/10/05 07:06:06;;;;;;;2.95;2.70;;;;;;;;;;5071978;28;20519;-82
2022/10/05 07:08:35;;;;;;;4.47;2.50;;;;;;;;;;5078008;28;20054;-82
2022/10/05 07:11:23;;;;;;;3.75;3.00;;;;;;;;;;5061011;28;20071;-82
2022/10/05 07:14:01;;;;;;;3.72;2.85;;;;;;;;;;5055996;28;20506;-83
2022/10/05 07:16:30;;;;;;;4.07;2.70;;;;;;;;;;5071303;28;20070;-85
2022/10/05 07:19:15;;;;;;;3.22;2.47;;;;;;;;;;5089055;28;20091;-83
2022/10/05 07:21:59;;;;;;;4.85;3.08;;;;;;;;;;5089903;28;20425;-83
2022/10/05 07:24:32;;;;;;;4.45;2.83;;;;;;;;;;5069217;28;20716;-83
2022/10/05 07:27:09;;;;;;;2.92;2.50;;;;;;;;;;5091847;28;20097;-83
2022/10/05 07:29:54;;;;;;;5.88;2.50;;;;;;;;;;5088335;28;20044;-82
2022/10/05 07:32:32;;;;;;;5.20;2.70;;;;;;;;;;5069897;28;20063;-82
2022/10/05 07:35:05;;;;;;;3.58;2.50;;;;;;;;;;5070123;28;20390;-83
2022/10/05 07:37:53;;;;;;;2.58;2.38;;;;;;;;;;5071707;28;20044;-82
2022/10/05 07:40:25;;;;;;;4.28;2.42;;;;;;;;;;5089044;28;20062;-83
2022/10/05 07:42:55;;;;;;;2.70;2.50;;;;;;;;;;5071268;28;20048;-83
2022/10/05 07:45:27;;;;;;;4.30;2.70;;;;;;;;;;5069446;28;20129;-83
2022/10/05 07:47:57;;;;;;;4.25;2.50;;;;;;;;;;5076154;28;20044;-85
2022/10/05 07:50:26;;;;;;;2.90;2.30;;;;;;;;;;5087785;28;20115;-83
2022/10/05 07:52:55;;;;;;;2.80;2.40;;;;;;;;;;5067505;28;20964;-84
2022/10/05 07:55:24;;;;;;;2.92;2.00;;;;;;;;;;5065955;28;20063;-82
2022/10/05 07:58:08;;;;;;;2.05;1.95;;;;;;;;;;5089983;28;20071;-83
2022/10/05 08:00:44;;;;;;;4.05;2.30;;;;;;;;;;5069584;28;20082;-83
2022/10/05 08:03:13;;;;;;;4.20;2.20;;;;;;;;;;5067103;28;20052;-83
2022/10/05 08:05:45;;;;;;;2.33;2.13;;;;;;;;;;5071500;28;20052;-85
2022/10/05 08:08:11;;;;;;;3.55;2.20;;;;;;;;;;5066102;28;20059;-84
2022/10/05 08:10:48;;;;;;;2.85;2.10;;;;;;;;;;5067766;28;20036;-84
2022/10/05 08:13:24;;;;;;;2.90;1.92;;;;;;;;;;5064969;28;20046;-82
2022/10/05 08:15:53;;;;;;;4.05;2.17;;;;;;;;;;5066997;28;20044;-82
2022/10/05 08:18:23;;;;;;;4.22;2.30;;;;;;;;;;5065159;28;20491;-83
2022/10/05 08:20:52;;;;;;;2.88;2.17;;;;;;;;;;5069882;28;20139;-83
2022/10/05 08:23:34;;;;;;;2.05;1.95;;;;;;;;;;5067837;28;20372;-84
2022/10/05 08:26:06;;;;;;;2.28;2.08;;;;;;;;;;5065793;28;20110;-84
2022/10/05 08:28:35;;;;;;;3.03;2.30;;;;;;;;;;5088947;28;20131;-84
2022/10/05 08:31:07;;;;;;;2.22;1.92;;;;;;;;;;5069011;28;20560;-84
2022/10/05 08:33:53;;;;;;;2.85;2.17;;;;;;;;;;5070843;28;20079;-84
2022/10/05 08:36:23;;;;;;;3.88;2.10;;;;;;;;;;5066028;28;20503;-83
2022/10/05 08:38:53;;;;;;;2.40;2.20;;;;;;;;;;5068584;28;20036;-84
2022/10/05 08:41:32;;;;;;;4.93;2.40;;;;;;;;;;5064284;28;20135;-82
2022/10/05 08:44:01;;;;;;;2.50;2.30;;;;;;;;;;5064034;28;20048;-83
2022/10/05 08:46:42;;;;;;;2.10;2.00;;;;;;;;;;5065629;28;20048;-83
2022/10/05 08:49:27;;;;;;;3.20;2.10;;;;;;;;;;5065207;28;20049;-83
2022/10/05 08:51:59;;;;;;;3.85;2.30;;;;;;;;;;5064555;28;20052;-83
2022/10/05 08:54:41;;;;;;;3.85;2.40;;;;;;;;;;5066155;28;20045;-83
2022/10/05 08:57:07;;;;;;;4.38;2.60;;;;;;;;;;5064956;28;20045;-84
2022/10/05 08:59:36;;;;;;;2.72;2.30;;;;;;;;;;5065490;28;20502;-84
2022/10/05 09:02:14;;;;;;;5.07;2.97;;;;;;;;;;5063003;28;20070;-84
2022/10/05 09:04:59;;;;;;;5.53;2.50;;;;;;;;;;5066399;28;20088;-85
2022/10/05 09:07:34;;;;;;;3.35;2.50;;;;;;;;;;5066424;28;20047;-85
2022/10/05 09:10:22;;;;;;;2.90;2.40;;;;;;;;;;5068504;28;20064;-85
2022/10/05 09:13:17;;;;;;;5.38;2.50;;;;;;;;;;5067768;28;20128;-83
2022/10/05 09:15:55;;;;;;;3.03;2.50;;;;;;;;;;5070208;28;20048;-84
2022/10/05 09:18:36;;;;;;;2.58;2.33;;;;;;;;;;5066235;28;20400;-85
2022/10/05 09:21:05;;;;;;;3.20;2.80;;;;;;;;;;5067309;28;20106;-82
2022/10/05 09:23:42;;;;;;;2.70;2.40;;;;;;;;;;5064550;28;20137;-83
2022/10/05 09:26:28;;;;;;;3.70;2.50;;;;;;;;;;5069023;28;20496;-82
2022/10/05 09:28:57;;;;;;;3.83;2.80;;;;;;;;;;5070418;28;20086;-83
2022/10/05 09:31:32;;;;;;;3.10;2.50;;;;;;;;;;5067593;28;20084;-83
2022/10/05 09:34:05;;;;;;;4.22;2.50;;;;;;;;;;5072419;28;20048;-83
2022/10/05 09:36:50;;;;;;;4.85;2.80;;;;;;;;;;5070035;28;20064;-82
2022/10/05 09:39:19;;;;;;;3.58;2.63;;;;;;;;;;5070454;28;20048;-82
2022/10/05 09:41:48;;;;;;;3.80;2.70;;;;;;;;;;5065740;28;20510;-82
2022/10/05 09:44:33;;;;;;;4.45;2.83;;;;;;;;;;5066599;28;20048;-82
2022/10/05 09:46:59;;;;;;;4.90;2.65;;;;;;;;;;5065820;28;20045;-82
2022/10/05 09:49:40;;;;;;;4.88;3.17;;;;;;;;;;5069213;28;20131;-83
2022/10/05 09:52:14;;;;;;;4.60;2.78;;;;;;;;;;5067326;28;20127;-83
2022/10/05 09:55:01;;;;;;;3.42;2.65;;;;;;;;;;5070048;28;20041;-83
2022/10/05 09:57:47;;;;;;;6.22;2.80;;;;;;;;;;5066394;28;20048;-82
2022/10/05 10:00:22;;;;;;;3.15;2.50;;;;;;;;;;5069303;28;20515;-80
2022/10/05 10:02:57;;;;;;;3.22;2.78;;;;;;;;;;5065786;28;20053;-82
2022/10/05 10:05:33;;;;;;;4.32;2.70;;;;;;;;;;5070256;28;20388;-81
2022/10/05 10:08:14;;;;;;;3.28;2.40;;;;;;;;;;5067346;28;20051;-81
2022/10/05 10:10:51;;;;;;;3.13;2.65;;;;;;;;;;5085687;28;20028;-82
2022/10/05 10:13:41;;;;;;;5.10;2.72;;;;;;;;;;5069670;28;20048;-81
2022/10/05 10:16:11;;;;;;;5.07;2.58;;;;;;;;;;5063219;28;20040;-82
2022/10/05 10:18:56;;;;;;;6.00;2.83;;;;;;;;;;5053127;28;20132;-82
2022/10/05 10:21:45;;;;;;;2.60;2.40;;;;;;;;;;5042758;28;20064;-82
2022/10/05 10:24:15;;;;;;;4.32;2.60;;;;;;;;;;5005525;28;20053;-81
2022/10/05 10:27:08;;;;;;;2.60;2.22;;;;;;;;;;5046960;28;20045;-84
2022/10/05 10:29:52;;;;;;;3.83;2.63;;;;;;;;;;5044784;28;20492;-81
2022/10/05 10:32:45;;;;;;;3.47;2.63;;;;;;;;;;5043199;28;20114;-81
2022/10/05 10:35:20;;;;;;;2.83;2.50;;;;;;;;;;5040889;28;20041;-80
2022/10/05 10:38:05;;;;;;;3.95;2.50;;;;;;;;;;5062486;28;20039;-82
2022/10/05 10:40:50;;;;;;;3.97;2.70;;;;;;;;;;5043856;28;20033;-81
2022/10/05 10:43:34;;;;;;;2.97;2.60;;;;;;;;;;5048886;28;20051;-81
2022/10/05 10:46:02;;;;;;;3.83;2.38;;;;;;;;;;5051582;28;20166;-84
2022/10/05 10:48:28;;;;;;;3.50;2.50;;;;;;;;;;5047721;28;20052;-82
2022/10/05 10:51:13;;;;;;;3.47;2.40;;;;;;;;;;5041873;28;20037;-84
2022/10/05 10:53:51;;;;;;;3.28;2.35;;;;;;;;;;5045507;28;20705;-86
2022/10/05 10:56:37;;;;;;;4.65;2.67;;;;;;;;;;5049569;28;20075;-84
2022/10/05 10:59:22;;;;;;;3.00;2.60;;;;;;;;;;5030976;28;20060;-84
2022/10/05 11:01:51;;;;;;;4.70;2.50;;;;;;;;;;5047055;28;20096;-84
2022/10/05 11:04:17;;;;;;;3.83;2.20;;;;;;;;;;5040696;28;20068;-83
2022/10/05 11:07:00;;;;;;;2.53;2.33;;;;;;;;;;5047350;28;20566;-85
2022/10/05 11:09:35;;;;;;;3.00;2.40;;;;;;;;;;5047825;28;20045;-83
2022/10/05 11:12:04;;;;;;;5.35;2.60;;;;;;;;;;5052233;28;20047;-82
2022/10/05 11:14:41;;;;;;;3.42;2.47;;;;;;;;;;5047504;28;20073;-84
2022/10/05 11:17:20;;;;;;;2.65;2.40;;;;;;;;;;5045011;28;20037;-82
2022/10/05 11:20:05;;;;;;;4.85;2.30;;;;;;;;;;5064683;28;20055;-81
2022/10/05 11:22:34;;;;;;;3.58;2.28;;;;;;;;;;5060892;28;20051;-81
2022/10/05 11:25:12;;;;;;;4.97;2.50;;;;;;;;;;5068215;28;20083;-81
2022/10/05 11:27:49;;;;;;;4.15;2.60;;;;;;;;;;5067640;28;20377;-81
2022/10/05 11:30:27;;;;;;;2.92;2.30;;;;;;;;;;5066881;28;20051;-81
2022/10/05 11:33:12;;;;;;;3.83;2.33;;;;;;;;;;5063492;28;20128;-81
2022/10/05 11:35:44;;;;;;;4.85;2.15;;;;;;;;;;5068233;28;20484;-81
2022/10/05 11:38:29;;;;;;;5.78;2.40;;;;;;;;;;5064264;28;20078;-81
2022/10/05 11:41:11;;;;;;;6.60;2.40;;;;;;;;;;5063679;28;20048;-80
2022/10/05 11:43:41;;;;;;;3.85;2.00;;;;;;;;;;5067216;28;20138;-81
2022/10/05 11:46:07;;;;;;;5.10;2.25;;;;;;;;;;5067134;28;20245;-81
2022/10/05 11:48:37;;;;;;;5.78;2.50;;;;;;;;;;5065768;28;20135;-82
2022/10/05 11:51:14;;;;;;;3.78;1.98;;;;;;;;;;5067830;28;20115;-81
2022/10/05 11:53:58;;;;;;;3.75;2.20;;;;;;;;;;5069658;28;20505;-81
2022/10/05 11:56:44;;;;;;;3.88;2.20;;;;;;;;;;5064801;28;20080;-81
2022/10/05 11:59:14;;;;;;;3.25;2.17;;;;;;;;;;5050580;28;20059;-81
2022/10/05 12:01:49;;;;;;;2.60;2.00;;;;;;;;;;5068252;28;20041;-81
2022/10/05 12:04:19;;;;;;;4.63;2.22;;;;;;;;;;5064899;28;20067;-79
2022/10/05 12:07:04;;;;;;;2.65;1.98;;;;;;;;;;5067161;28;20556;-80
2022/10/05 12:09:30;;;;;;;4.82;1.83;;;;;;;;;;5069907;28;20127;-81
2022/10/05 12:12:17;;;;;;;3.42;2.05;;;;;;;;;;5068388;28;20160;-81
2022/10/05 12:14:56;;;;;;;4.00;2.15;;;;;;;;;;5069528;28;20098;-81
2022/10/05 12:17:32;;;;;;;6.07;2.05;;;;;;;;;;5066960;28;20396;-80
2022/10/05 12:20:01;;;;;;;4.30;2.00;;;;;;;;;;5063595;28;20052;-82
2022/10/05 12:22:38;;;;;;;5.28;2.10;;;;;;;;;;5065646;28;20064;-82
2022/10/05 12:25:25;;;;;;;4.90;2.00;;;;;;;;;;5066785;28;20053;-81
2022/10/05 12:27:52;;;;;;;3.75;1.88;;;;;;;;;;5062328;28;20052;-81
2022/10/05 12:30:18;;;;;;;2.92;2.10;;;;;;;;;;5064877;28;20129;-80
2022/10/05 12:33:04;;;;;;;2.85;1.95;;;;;;;;;;5067243;28;20067;-82
2022/10/05 12:35:54;;;;;;;5.20;2.05;;;;;;;;;;5024392;28;20484;-81
2022/10/05 12:38:39;;;;;;;5.85;2.35;;;;;;;;;;5050939;28;20053;-80
2022/10/05 12:41:24;;;;;;;2.97;2.03;;;;;;;;;;5068426;28;20114;-82
2022/10/05 12:44:04;;;;;;;2.45;1.90;;;;;;;;;;5072305;28;20032;-81
2022/10/05 12:46:53;;;;;;;4.05;1.98;;;;;;;;;;5072850;28;20082;-81
2022/10/05 12:49:27;;;;;;;3.70;2.10;;;;;;;;;;5069965;28;20040;-81
2022/10/05 12:52:02;;;;;;;2.95;1.80;;;;;;;;;;5067665;28;20510;-81
2022/10/05 12:54:34;;;;;;;2.00;1.80;;;;;;;;;;5069914;28;20713;-80
2022/10/05 12:57:10;;;;;;;1.80;1.67;;;;;;;;;;5061442;28;20044;-82
2022/10/05 12:59:42;;;;;;;4.47;2.03;;;;;;;;;;5064441;28;20072;-81
2022/10/05 13:02:18;;;;;;;3.10;1.95;;;;;;;;;;5064824;28;20059;-80
2022/10/05 13:04:47;;;;;;;4.57;2.03;;;;;;;;;;5072135;28;20045;-81
2022/10/05 13:07:31;;;;;;;4.35;2.17;;;;;;;;;;5068509;28;20464;-80
2022/10/05 13:09:57;;;;;;;7.20;2.50;;;;;;;;;;5069364;28;20122;-81
2022/10/05 13:12:34;;;;;;;2.63;2.10;;;;;;;;;;5068919;28;20131;-81
2022/10/05 13:15:13;;;;;;;3.45;2.17;;;;;;;;;;5066026;28;20048;-81
2022/10/05 13:17:44;;;;;;;2.92;2.20;;;;;;;;;;5070575;28;20507;-81
2022/10/05 13:20:29;;;;;;;3.63;1.90;;;;;;;;;;5089360;28;20070;-80
2022/10/05 13:23:14;;;;;;;3.90;2.03;;;;;;;;;;5087344;28;20156;-81
2022/10/05 13:25:44;;;;;;;3.58;2.33;;;;;;;;;;5083484;28;20074;-81
2022/10/05 13:28:14;;;;;;;4.22;2.00;;;;;;;;;;5068061;28;20430;-81
2022/10/05 13:30:44;;;;;;;3.47;2.00;;;;;;;;;;5091613;28;20044;-81
2022/10/05 13:33:10;;;;;;;6.28;2.40;;;;;;;;;;5088455;28;20126;-80
2022/10/05 13:35:55;;;;;;;3.22;2.40;;;;;;;;;;5092878;28;20124;-81
2022/10/05 13:38:21;;;;;;;5.40;2.65;;;;;;;;;;5089459;28;20044;-80
2022/10/05 13:40:52;;;;;;;3.63;2.30;;;;;;;;;;5071756;28;20048;-81
2022/10/05 13:43:33;;;;;;;4.53;2.40;;;;;;;;;;5067395;28;20093;-80
2022/10/05 13:46:05;;;;;;;6.47;2.47;;;;;;;;;;5087685;28;20610;-81
2022/10/05 13:48:45;;;;;;;4.03;2.40;;;;;;;;;;5075677;28;20099;-80
2022/10/05 13:51:35;;;;;;;3.90;2.40;;;;;;;;;;5090109;28;20040;-79
2022/10/05 13:54:10;;;;;;;2.97;2.40;;;;;;;;;;5072593;28;20048;-81
2022/10/05 13:56:39;;;;;;;5.15;2.40;;;;;;;;;;5091117;28;20036;-81
2022/10/05 13:59:11;;;;;;;4.38;2.40;;;;;;;;;;5067775;28;20056;-82
2022/10/05 14:01:42;;;;;;;5.90;2.75;;;;;;;;;;5069353;28;20127;-81
2022/10/05 14:04:19;;;;;;;5.78;2.70;;;;;;;;;;5073587;28;20060;-81
2022/10/05 14:06:46;;;;;;;5.30;2.55;;;;;;;;;;5063926;28;20047;-81
2022/10/05 14:09:32;;;;;;;4.78;2.58;;;;;;;;;;5066000;28;20564;-82
2022/10/05 14:12:04;;;;;;;2.40;2.20;;;;;;;;;;5091501;28;20135;-82
2022/10/05 14:14:32;;;;;;;4.68;2.85;;;;;;;;;;5066745;28;20048;-82
2022/10/05 14:17:02;;;;;;;4.30;2.22;;;;;;;;;;5068812;28;20043;-82
2022/10/05 14:19:31;;;;;;;3.50;2.22;;;;;;;;;;5076100;28;20067;-82
2022/10/05 14:22:02;;;;;;;4.63;2.20;;;;;;;;;;5080987;28;20044;-82
2022/10/05 14:24:28;;;;;;;5.88;2.83;;;;;;;;;;5069922;28;20616;-82
2022/10/05 14:26:54;;;;;;;5.63;2.20;;;;;;;;;;5089995;28;20051;-81
2022/10/05 14:29:39;;;;;;;2.42;2.20;;;;;;;;;;5070811;28;20050;-81
2022/10/05 14:32:15;;;;;;;7.20;2.17;;;;;;;;;;5089675;28;20040;-84
2022/10/05 14:34:45;;;;;;;7.60;3.35;;;;;;;;;;5088187;28;20483;-82
2022/10/05 14:37:24;;;;;;;6.25;2.33;;;;;;;;;;5070001;28;20040;-83
2022/10/05 14:39:56;;;;;;;6.35;2.70;;;;;;;;;;5215233;22;20053;-86
2022/10/05 14:42:23;;;;;;;7.00;2.60;;;;;;;;;;5012589;28;20084;-83
2022/10/05 14:45:07;;;;;;;5.32;2.60;;;;;;;;;;5014218;28;20053;-82
2022/10/05 14:47:37;;;;;;;4.13;2.40;;;;;;;;;;5014485;28;20064;-83
2022/10/05 14:50:18;;;;;;;6.80;2.75;;;;;;;;;;5010194;28;20064;-81
2022/10/05 14:52:48;;;;;;;7.47;2.70;;;;;;;;;;5034435;28;20041;-81
2022/10/05 14:55:16;;;;;;;5.63;2.42;;;;;;;;;;5003862;28;20065;-81
2022/10/05 14:57:55;;;;;;;4.22;2.42;;;;;;;;;;5043528;28;20045;-80
2022/10/05 15:00:21;;;;;;;6.88;2.10;;;;;;;;;;5020882;28;20042;-82
2022/10/05 15:02:56;;;;;;;3.08;2.13;;;;;;;;;;5028696;28;20066;-81
2022/10/05 15:05:31;;;;;;;5.22;2.20;;;;;;;;;;5012494;28;20580;-81
2022/10/05 15:08:08;;;;;;;5.05;2.25;;;;;;;;;;5019765;28;20057;-81
2022/10/05 15:11:10;;;;;;;5.43;2.30;;;;;;;;;;5032462;28;20056;-81
2022/10/05 15:13:41;;;;;;;3.70;2.13;;;;;;;;;;5009712;28;20076;-82
2022/10/05 15:16:13;;;;;;;6.43;2.80;;;;;;;;;;5008702;28;20045;-82
2022/10/05 15:18:43;;;;;;;6.60;2.55;;;;;;;;;;5013208;28;20077;-81
2022/10/05 15:21:19;;;;;;;2.78;2.10;;;;;;;;;;5035913;28;20535;-81
2022/10/05 15:23:51;;;;;;;6.03;2.75;;;;;;;;;;5020739;28;20049;-83
2022/10/05 15:26:37;;;;;;;5.57;2.40;;;;;;;;;;5028814;28;20409;-83
2022/10/05 15:29:03;;;;;;;4.80;2.15;;;;;;;;;;5017259;28;20057;-82
2022/10/05 15:31:40;;;;;;;4.93;2.50;;;;;;;;;;5033606;28;20048;-83
2022/10/05 15:34:15;;;;;;;6.45;3.00;;;;;;;;;;5033437;28;20132;-81